Ischia Jet — IOBI — position and weather

sailwx.info

Track history (hours):
 
Tides and Currents Weather Stations Pressure Air Temp Water Temp Dewpoint Dewpoint Depression Visibility Wind Speed Wind Dir Waves Ship Positions

Ischia Jet

Last reported at 2016-Jun-29 14:30 UTC. Time now 2016-Jun-30 01:32 UTC.
Position N 40°51' E 014°16'.

Length 42 m; draft 1.2 m.

Type: Passenger vessel. MMSI: 247048700.

Date/timePositionNaut miles runAvg speedWind from/ knotsBaromVisibWave heightAir tempDewpointWater temp
2016-Jun-29 14:30N 40°51' E 014°16'0 0.0
2016-Jun-29 13:20N 40°51' E 014°16'13 0.6
2016-Jun-28 14:28N 40°37' E 014°20'6 5.9
2016-Jun-28 13:31N 40°33' E 014°14'8 7.9
2016-Jun-28 12:33N 40°38' E 014°23'8 7.7
2016-Jun-28 11:33N 40°33' E 014°14'8 7.9
2016-Jun-28 10:33N 40°41' E 014°17'8 7.5
2016-Jun-28 09:26N 40°49' E 014°17'1611.9
2016-Jun-28 08:06N 40°34' E 014°15'0 0.5
2016-Jun-28 07:08N 40°34' E 014°15'8 9.4
2016-Jun-28 06:19N 40°39' E 014°23'4 0.2
2016-Jun-27 14:22N 40°37' E 014°19'3 3.7
2016-Jun-27 13:33N 40°35' E 014°16'14 6.8
2016-Jun-27 11:30N 40°49' E 014°17'1617.1
2016-Jun-27 10:33N 40°33' E 014°14'1 0.4
2016-Jun-27 08:29N 40°34' E 014°15'0 0.2
2016-Jun-27 07:07N 40°34' E 014°15'13 0.8
2016-Jun-26 15:05N 40°42' E 014°29'611.0
2016-Jun-26 14:34N 40°38' E 014°23'8 7.6
2016-Jun-26 13:33N 40°33' E 014°14'7 7.4
2016-Jun-26 12:34N 40°38' E 014°22'8 7.4
2016-Jun-26 11:33N 40°33' E 014°14'7 7.0
2016-Jun-26 10:33N 40°40' E 014°17'7 3.0
2016-Jun-26 08:12N 40°33' E 014°15'0 0.0
2016-Jun-26 07:11N 40°33' E 014°14'810.0
2016-Jun-26 06:23N 40°38' E 014°23'1 0.0
2016-Jun-25 14:33N 40°38' E 014°23'8 6.7
2016-Jun-25 13:26N 40°33' E 014°14'8 8.8
2016-Jun-25 12:34N 40°38' E 014°23'8 7.5
2016-Jun-25 11:32N 40°33' E 014°14'8 8.2
2016-Jun-25 10:32N 40°41' E 014°18'8 6.6
2016-Jun-25 09:22N 40°49' E 014°17'1612.9
2016-Jun-25 08:09N 40°33' E 014°15'1 1.3
2016-Jun-25 07:09N 40°35' E 014°16'3 0.2
2016-Jun-24 14:21N 40°36' E 014°18'2 2.2
2016-Jun-24 13:29N 40°35' E 014°16'14 7.1
2016-Jun-24 11:30N 40°49' E 014°17'1617.0
2016-Jun-24 10:33N 40°33' E 014°14'0 0.0
2016-Jun-24 09:33N 40°33' E 014°14'0 0.0
2016-Jun-24 08:32N 40°33' E 014°14'5 4.9
2016-Jun-24 07:34N 40°37' E 014°19'5 0.1
2016-Jun-22 11:18N 40°33' E 014°14'810.3
2016-Jun-22 10:34N 40°41' E 014°16'9 9.1
2016-Jun-22 09:33N 40°50' E 014°17'13 0.6
2016-Jun-21 12:22N 40°38' E 014°23'8 9.3
2016-Jun-21 11:33N 40°33' E 014°14'0 0.0
2016-Jun-21 10:33N 40°33' E 014°14'0 0.0
2016-Jun-21 09:33N 40°33' E 014°14'10 0.5
2016-Jun-20 13:07N 40°43' E 014°17'  
Track history (hours):
 
Tides and Currents Weather Stations Pressure Air Temp Water Temp Dewpoint Dewpoint Depression Visibility Wind Speed Wind Dir Waves Ship Positions

Ischia Jet

Last reported at 2016-Jun-29 14:30 UTC. Time now 2016-Jun-30 01:32 UTC.
Position N 40°51' E 014°16'.

Length 42 m; draft 1.2 m.

Type: Passenger vessel. MMSI: 247048700.

Date/timePositionNaut miles runAvg speedWind from/ knotsBaromVisibWave heightAir tempDewpointWater temp
2016-Jun-29 14:30N 40°51' E 014°16'0 0.0
2016-Jun-29 13:20N 40°51' E 014°16'13 0.6
2016-Jun-28 14:28N 40°37' E 014°20'6 5.9
2016-Jun-28 13:31N 40°33' E 014°14'8 7.9
2016-Jun-28 12:33N 40°38' E 014°23'8 7.7
2016-Jun-28 11:33N 40°33' E 014°14'8 7.9
2016-Jun-28 10:33N 40°41' E 014°17'8 7.5
2016-Jun-28 09:26N 40°49' E 014°17'1611.9
2016-Jun-28 08:06N 40°34' E 014°15'0 0.5
2016-Jun-28 07:08N 40°34' E 014°15'8 9.4
2016-Jun-28 06:19N 40°39' E 014°23'4 0.2
2016-Jun-27 14:22N 40°37' E 014°19'3 3.7
2016-Jun-27 13:33N 40°35' E 014°16'14 6.8
2016-Jun-27 11:30N 40°49' E 014°17'1617.1
2016-Jun-27 10:33N 40°33' E 014°14'1 0.4
2016-Jun-27 08:29N 40°34' E 014°15'0 0.2
2016-Jun-27 07:07N 40°34' E 014°15'13 0.8
2016-Jun-26 15:05N 40°42' E 014°29'611.0
2016-Jun-26 14:34N 40°38' E 014°23'8 7.6
2016-Jun-26 13:33N 40°33' E 014°14'7 7.4
2016-Jun-26 12:34N 40°38' E 014°22'8 7.4
2016-Jun-26 11:33N 40°33' E 014°14'7 7.0
2016-Jun-26 10:33N 40°40' E 014°17'7 3.0
2016-Jun-26 08:12N 40°33' E 014°15'0 0.0
2016-Jun-26 07:11N 40°33' E 014°14'810.0
2016-Jun-26 06:23N 40°38' E 014°23'1 0.0
2016-Jun-25 14:33N 40°38' E 014°23'8 6.7
2016-Jun-25 13:26N 40°33' E 014°14'8 8.8
2016-Jun-25 12:34N 40°38' E 014°23'8 7.5
2016-Jun-25 11:32N 40°33' E 014°14'8 8.2
2016-Jun-25 10:32N 40°41' E 014°18'8 6.6
2016-Jun-25 09:22N 40°49' E 014°17'1612.9
2016-Jun-25 08:09N 40°33' E 014°15'1 1.3
2016-Jun-25 07:09N 40°35' E 014°16'3 0.2
2016-Jun-24 14:21N 40°36' E 014°18'2 2.2
2016-Jun-24 13:29N 40°35' E 014°16'14 7.1
2016-Jun-24 11:30N 40°49' E 014°17'1617.0
2016-Jun-24 10:33N 40°33' E 014°14'0 0.0
2016-Jun-24 09:33N 40°33' E 014°14'0 0.0
2016-Jun-24 08:32N 40°33' E 014°14'5 4.9
2016-Jun-24 07:34N 40°37' E 014°19'5 0.1
2016-Jun-22 11:18N 40°33' E 014°14'810.3
2016-Jun-22 10:34N 40°41' E 014°16'9 9.1
2016-Jun-22 09:33N 40°50' E 014°17'13 0.6
2016-Jun-21 12:22N 40°38' E 014°23'8 9.3
2016-Jun-21 11:33N 40°33' E 014°14'0 0.0
2016-Jun-21 10:33N 40°33' E 014°14'0 0.0
2016-Jun-21 09:33N 40°33' E 014°14'10 0.5
2016-Jun-20 13:07N 40°43' E 014°17'  

Dump ship's entire track history